Kagoshima, Japan
Current Conditions -  °F | °C
As of 12:00 PM on Friday 28 Nov 2014 (Local Time) from RJFK Reporting Station
Broken Clouds Broken Clouds  
Wind Chill: 68°   Ceiling: 6000
Heat Index: 68°   Visibility: 6mi
Dew Point: 55°   Wind: 8mph
Humidity: 64%   Direction: 140°SE
Pressure: 30.09"   Gusts: NA
Location:  31.59°N, 130.56°E
Report Text: RJFK 280300Z 14007KT 9999 FEW025 BKN060 BKN100 20/13 Q1019
Loading
Personal Weather Stations






























Interactive Weather Map New forecast layout! Learn more

10-Day Weather Forecast

Advertisements
Track Severe Weather on mobile